CheckWX is a tool to help pilots better visualize weather data.  It is not intended as a substitute for an official pre-flight weather briefing.

12:27:03 UTC

EKOD TAF
Odense Airport
Odense, Denmark
TAF EKOD 221201Z 2212/2217 18008KT 9999 BKN003 TEMPO 2212/2217 2000 BR BECMG 2212/2214 BKN008 BECMG 2214/2217 BKN015

Mar-22@
12:00 UTC

Mar-22 @ 12:00 UTC

Mar-22@
17:00 UTC

Mar-22 @ 17:00 UTC

TAF EKOD 221201Z 2212/2217 18008KT 9999 BKN003
Wind
  • 180° at 8 KTS
Cloud Levels
  • Broken at 300' AGL

Mar-22@
12:00 UTC

Mar-22 @ 12:00 UTC

Mar-22@
14:00 UTC

Mar-22 @ 14:00 UTC

BECMG 2212/2214 BKN008

Becoming

Becoming Conditions expected by Fri, Mar 22, 2019 @ 14:00 UTC

Wind
  • 180° at 8 KTS
Cloud Levels
  • Broken at 800' AGL

Mar-22@
12:00 UTC

Mar-22 @ 12:00 UTC

Mar-22@
17:00 UTC

Mar-22 @ 17:00 UTC

TEMPO 2212/2217 2000 BR

Temporary

Temporary Changes expected for less than half the time period

Conditions
Mist

Mar-22@
14:00 UTC

Mar-22 @ 14:00 UTC

Mar-22@
17:00 UTC

Mar-22 @ 17:00 UTC

BECMG 2214/2217 BKN015

Becoming

Becoming Conditions expected by Fri, Mar 22, 2019 @ 17:00 UTC

Wind
  • 180° at 8 KTS
Cloud Levels
  • Broken at 1,500' AGL